KAWG

Washington Municipal Airport

Washington, Iowa, USA
METAR KAWG 101555Z AUTO 26007KT 3SM BR CLR M04/M04 A3033 RMK AO2
Observed Flight Rules
Dec-10 @ 15:55 UTC (21 minutes ago) Marginal Visual Flight Rules
Wind Visibility Clouds Conditions
260° at 7 knots 3 miles
  • Clear skies
  • Mist
Temperatures Readings
Current -4°C / 25°F
Dewpoint -4°C / 25°F
Humidity 100%
Altimeter 30.33" Hg
Pressure 1027 hPa
Elevation 230
METAR KAWG 101555Z AUTO 26007KT 3SM BR CLR M04/M04 A3033 RMK AO2
Observed Flight Rules
Dec-10 @ 15:55 UTC
(21 minutes ago)
MVFR
Wind Visibility
260° at 7 knots 3 miles
Clouds
  • Clear skies
Conditions
  • Mist
Temperature Dewpoint
-4°C / 25°F -4°C / 25°F
Humidity Altimeter Pressure
100% 30.33" Hg 1027 hPa